Overview Statistics Trail Chart Weather Telemetry Raw packets
 

This is the latest recevied packets stored in our database for station/object DL4ALF-9. If no packets are shown the sender has not sent any packets the latest 24 hours.

If you compare the raw packets with similar data from other websites it may differ (especially the path), the reason is that we are not collecting packets from the same APRS-IS servers. Each APRS-IS server performes duplicate filtering, and which packet that is considered to be a duplicate may differ depending on which APRS-IS server you receive your data from.

<< 1 2 >>

1788633289: DL4ALF-9>APRSMC,TCPIP*,qAR,DB0TAW-13:T#482,988.7,24.9,30.7,356,0.0,00000000

1788633289: DL4ALF-9>APRSMC,TCPIP*,qAR,DB0TAW-13:!5057.43N/01054.40E[Sebastian#Sebastian/B=088/A=000889/N4

1788632932: DL4ALF-9>APRSMC,TCPIP*,qAR,DK6WH-9:T#880,988.7,24.9,30.7,356,0.0,00000000

1788632932: DL4ALF-9>APRSMC,TCPIP*,qAR,DK6WH-9:!5057.43N/01054.40E[Sebastian#Sebastian/B=088/A=000889/N4

1788626304: DL4ALF-9>APRSMC,TCPIP*,qAR,DL2AKT-99:T#879,987.3,26.1,27.4,506,0.0,00000000

1788626304: DL4ALF-9>APRSMC,TCPIP*,qAR,DB0TAW-13:T#481,987.3,26.1,27.4,506,0.0,00000000

1788626304: DL4ALF-9>APRSMC,TCPIP*,qAR,DB0TAW-13::DL4ALF-9 :EQNS.0,1,0,0,1,0,0,1,0,0,1,0,0,1,0

1788626304: DL4ALF-9>APRSMC,TCPIP*,qAR,DB0TAW-13::DL4ALF-9 :PARM.Press,Temp.in,Hum,eGAS,Temp.out,track,-,-,-,-,-,-,-

1788626304: DL4ALF-9>APRSMC,TCPIP*,qAR,DB0TAW-13::DL4ALF-9 :UNIT.hPa,C deg,%,-,C deg,Y/N,O/N,O/N,O/N,O/N,O/N,O/N,O/N

1788626304: DL4ALF-9>APRSMC,TCPIP*,qAR,DB0TAW-13:!5057.43N/01054.40E[Sebastian#Sebastian/B=030/A=000889/N4

1788623907: DL4ALF-9>APRSMC,TCPIP*,qAR,DK5AI-12:T#480,987.0,26.5,28.4,436,0.0,00000000

1788623907: DL4ALF-9>APRSMC,TCPIP*,qAR,DK5AI-12:!5057.43N/01054.40E[Sebastian#Sebastian/B=025/A=000889/N5

1788623819: DL4ALF-9>APRSMC,TCPIP*,qAR,DL4AWI-99:T#877,987.0,26.5,28.4,436,0.0,00000000

1788623819: DL4ALF-9>APRSMC,TCPIP*,qAR,DL4AWI-99:!5057.43N/01054.40E[Sebastian#Sebastian/B=025/A=000889/N5

1788620403: DL4ALF-9>APRSMC,TCPIP*,qAR,DB0TAW-13:T#479,986.6,26.4,29.1,370,0.0,00000000

1788620403: DL4ALF-9>APRSMC,TCPIP*,qAR,DB0TAW-13:!5057.43N/01054.40E[Sebastian#Sebastian/B=017/A=000889/N4

1788620118: DL4ALF-9>APRSMC,TCPIP*,qAR,DL4AWI-99:T#875,986.6,26.4,29.1,370,0.0,00000000

1788620118: DL4ALF-9>APRSMC,TCPIP*,qAR,DL4AWI-99:!5057.43N/01054.40E[Sebastian#Sebastian/B=017/A=000889/N4

1788577685: DL4ALF-9>APRSMC,TCPIP*,qAR,DB0TAW-13:T#478,982.8,21.2,40.7,294,0.0,00000000

1788577685: DL4ALF-9>APRSMC,TCPIP*,qAR,DB0TAW-13:!5057.43N/01054.40E[Sebastian#Sebastian/B=001/A=000889/N4

1788572196: DL4ALF-9>APRSMC,TCPIP*,qAR,DB0TAW-13:T#477,981.9,21.4,40.9,293,0.0,00000000

1788572196: DL4ALF-9>APRSMC,TCPIP*,qAR,DB0TAW-13:!5057.43N/01054.40E[Sebastian#Sebastian/B=007/A=000889/N4

1788570964: DL4ALF-9>APRSMC,TCPIP*,qAR,DG0OEX-9:!5057.43N/01054.40E[Sebastian#Sebastian/B=010/A=000889/N4

1788570964: DL4ALF-9>APRSMC,TCPIP*,qAR,DG0OEX-9:T#476,981.7,21.5,40.9,289,0.0,00000000

1788570964: DL4ALF-9>APRSMC,TCPIP*,qAR,DL2AKT-99:T#872,981.7,21.5,40.9,289,0.0,00000000